createdAt,value
2018-04-30T00:01:59.011Z,94935.92
2018-04-30T00:04:26.544Z,94926.09
2018-04-30T00:06:54.081Z,94926.87
2018-04-30T00:09:22.799Z,94928.88
2018-04-30T00:11:50.333Z,94924.78
2018-04-30T00:14:17.816Z,94936.50
2018-04-30T00:16:45.283Z,94942.31
2018-04-30T00:19:13.794Z,94942.68
2018-04-30T00:21:41.267Z,94946.75
2018-04-30T00:24:08.736Z,94943.09
2018-04-30T00:26:36.276Z,94936.66
2018-04-30T00:29:03.819Z,94923.81
2018-04-30T00:31:31.356Z,94916.73
2018-04-30T00:33:58.866Z,94924.00
2018-04-30T00:36:26.393Z,94911.45
2018-04-30T00:38:53.895Z,94905.11
2018-04-30T00:41:22.599Z,94906.69
2018-04-30T00:43:50.176Z,94904.37
2018-04-30T00:46:17.711Z,94901.64
2018-04-30T00:48:45.204Z,94892.04
2018-04-30T00:51:13.004Z,94889.42
2018-04-30T00:53:40.497Z,94891.41
2018-04-30T00:56:08.031Z,94885.69
2018-04-30T00:58:35.525Z,94884.25
2018-04-30T01:01:03.012Z,94881.52
2018-04-30T01:03:30.493Z,94883.48
2018-04-30T01:05:57.996Z,94878.31
2018-04-30T01:08:25.487Z,94875.95
2018-04-30T01:10:52.978Z,94868.80
2018-04-30T01:13:20.471Z,94870.94
2018-04-30T01:15:47.962Z,94868.94
2018-04-30T01:18:15.457Z,94871.41
2018-04-30T01:20:42.933Z,94867.56
2018-04-30T01:23:11.242Z,94871.31
2018-04-30T01:25:40.053Z,94876.80
2018-04-30T01:28:07.621Z,94864.41
2018-04-30T01:30:35.150Z,94865.37
2018-04-30T01:33:02.678Z,94861.94
2018-04-30T01:35:30.192Z,94859.62
2018-04-30T01:37:57.703Z,94865.20
2018-04-30T01:40:25.218Z,94843.63
2018-04-30T01:42:53.107Z,94845.61
2018-04-30T01:45:20.913Z,94840.02
2018-04-30T01:47:48.696Z,94844.31
2018-04-30T01:50:16.272Z,94845.00
2018-04-30T01:52:43.804Z,94839.97
2018-04-30T01:55:11.712Z,94834.78
2018-04-30T01:57:39.312Z,94839.09
2018-04-30T02:00:06.853Z,94851.18
2018-04-30T02:02:34.609Z,94843.95
2018-04-30T02:05:02.167Z,94834.30
2018-04-30T02:07:29.734Z,94840.80
2018-04-30T02:09:57.342Z,94844.92
2018-04-30T02:12:24.876Z,94839.11
2018-04-30T02:14:52.420Z,94838.75
2018-04-30T02:17:19.976Z,94831.59
2018-04-30T02:19:47.453Z,94833.95
2018-04-30T02:22:14.938Z,94836.30
2018-04-30T02:24:42.469Z,94834.66
2018-04-30T02:27:09.971Z,94830.08
2018-04-30T02:29:37.468Z,94825.73
2018-04-30T02:32:04.956Z,94818.73
2018-04-30T02:34:32.456Z,94829.69
2018-04-30T02:36:59.973Z,94813.03
2018-04-30T02:39:27.472Z,94822.81
2018-04-30T02:41:54.955Z,94818.95
2018-04-30T02:44:22.494Z,94805.83
2018-04-30T02:46:49.984Z,94805.25
2018-04-30T02:49:17.930Z,94808.84
2018-04-30T02:51:45.448Z,94805.50
2018-04-30T02:54:12.945Z,94808.11
2018-04-30T02:56:40.423Z,94806.97
2018-04-30T02:59:07.899Z,94808.03
2018-04-30T03:01:35.402Z,94804.63
2018-04-30T03:04:02.896Z,94795.47
2018-04-30T03:06:30.450Z,94797.52
2018-04-30T03:08:58.027Z,94794.19
2018-04-30T03:11:25.782Z,94785.47
2018-04-30T03:13:53.264Z,94784.00
2018-04-30T03:16:20.756Z,94792.72
2018-04-30T03:18:48.304Z,94789.18
2018-04-30T03:21:15.899Z,94791.20
2018-04-30T03:23:43.374Z,94788.01
2018-04-30T03:26:10.888Z,94786.73
2018-04-30T03:28:38.367Z,94786.69
2018-04-30T03:31:05.850Z,94786.20
2018-04-30T03:33:33.464Z,94781.58
2018-04-30T03:36:00.934Z,94784.11
2018-04-30T03:38:28.418Z,94764.70
2018-04-30T03:40:56.088Z,94768.89
2018-04-30T03:43:23.869Z,94769.45
2018-04-30T03:45:51.349Z,94761.06
2018-04-30T03:48:18.853Z,94770.18
2018-04-30T03:50:46.339Z,94759.65
2018-04-30T03:53:14.130Z,94759.47
2018-04-30T03:55:41.670Z,94755.47
2018-04-30T03:58:09.140Z,94766.26
2018-04-30T04:00:48.196Z,94770.33
2018-04-30T04:03:28.104Z,94767.34
2018-04-30T04:09:18.497Z,94775.61
2018-04-30T04:11:46.128Z,94775.88
2018-04-30T04:14:13.724Z,94773.63
2018-04-30T04:16:41.276Z,94783.33
2018-04-30T04:19:09.031Z,94777.47
2018-04-30T04:21:36.659Z,94780.97
2018-04-30T04:24:04.247Z,94780.34
2018-04-30T04:26:31.835Z,94786.76
2018-04-30T04:28:59.393Z,94780.39
2018-04-30T04:31:26.944Z,94785.71
2018-04-30T04:33:54.516Z,94802.13
2018-04-30T04:36:22.061Z,94782.77
2018-04-30T04:38:49.604Z,94783.74
2018-04-30T04:41:17.285Z,94781.36
2018-04-30T04:43:44.879Z,94790.35
2018-04-30T04:46:12.434Z,94792.36
2018-04-30T04:48:40.013Z,94798.61
2018-04-30T04:51:07.568Z,94796.58
2018-04-30T04:53:35.107Z,94794.30
2018-04-30T04:56:02.663Z,94787.16
2018-04-30T04:58:30.207Z,94800.42
2018-04-30T05:00:57.696Z,94802.34
2018-04-30T05:03:25.188Z,94795.27
2018-04-30T05:05:52.741Z,94805.08
2018-04-30T05:08:20.248Z,94803.61
2018-04-30T05:10:47.755Z,94797.67
2018-04-30T05:13:15.585Z,94807.73
2018-04-30T05:15:43.131Z,94811.68
2018-04-30T05:18:10.679Z,94804.14
2018-04-30T05:20:38.272Z,94801.36
2018-04-30T05:23:06.008Z,94808.31
2018-04-30T05:25:33.571Z,94811.99
2018-04-30T05:28:01.106Z,94822.50
2018-04-30T05:30:28.682Z,94823.18
2018-04-30T05:32:56.128Z,94824.38
2018-04-30T05:35:23.610Z,94833.72
2018-04-30T05:37:51.119Z,94825.00
2018-04-30T05:40:18.588Z,94824.73
2018-04-30T05:42:46.139Z,94832.24
2018-04-30T05:45:13.589Z,94838.84
2018-04-30T05:47:41.107Z,94845.48
2018-04-30T05:50:08.624Z,94837.11
2018-04-30T05:52:36.089Z,94834.91
2018-04-30T05:55:03.580Z,94839.26
2018-04-30T05:57:31.095Z,94841.02
2018-04-30T05:59:58.582Z,94842.69
2018-04-30T06:02:26.553Z,94843.44
2018-04-30T06:04:54.170Z,94837.12
2018-04-30T06:07:21.701Z,94833.11
2018-04-30T06:09:49.248Z,94837.63
2018-04-30T06:12:16.745Z,94842.08
2018-04-30T06:14:44.273Z,94840.13
2018-04-30T06:17:12.679Z,94831.16
2018-04-30T06:19:41.143Z,94832.32
2018-04-30T06:22:08.686Z,94835.14
2018-04-30T06:24:36.186Z,94834.66
2018-04-30T06:27:04.137Z,94834.38
2018-04-30T06:29:31.831Z,94832.48
2018-04-30T06:31:59.349Z,94838.89
2018-04-30T06:34:26.908Z,94839.59
2018-04-30T06:36:54.478Z,94837.61
2018-04-30T06:39:22.015Z,94841.98
2018-04-30T06:41:49.537Z,94836.84
2018-04-30T06:44:17.089Z,94837.56
2018-04-30T06:46:44.626Z,94830.48
2018-04-30T06:49:12.830Z,94835.78
2018-04-30T06:51:40.436Z,94829.20
2018-04-30T06:54:07.991Z,94831.39
2018-04-30T06:56:35.597Z,94830.61
2018-04-30T06:59:03.210Z,94835.58
2018-04-30T07:01:30.789Z,94830.55
2018-04-30T07:03:58.352Z,94832.47
2018-04-30T07:06:25.895Z,94828.69
2018-04-30T07:08:53.469Z,94824.03
2018-04-30T07:11:21.056Z,94817.78
2018-04-30T07:13:48.596Z,94830.42
2018-04-30T07:16:16.169Z,94828.58
2018-04-30T07:18:43.735Z,94827.84
2018-04-30T07:21:11.269Z,94831.08
2018-04-30T07:23:38.816Z,94828.50
2018-04-30T07:26:06.318Z,94825.51
2018-04-30T07:28:33.852Z,94828.78
2018-04-30T07:31:01.382Z,94836.30
2018-04-30T07:33:29.083Z,94831.98
2018-04-30T07:35:56.671Z,94831.89
2018-04-30T07:38:24.263Z,94836.25
2018-04-30T07:40:51.798Z,94832.20
2018-04-30T07:43:19.459Z,94832.59
2018-04-30T07:45:46.970Z,94832.28
2018-04-30T07:48:14.500Z,94833.27
2018-04-30T07:50:41.997Z,94821.92
2018-04-30T07:53:09.827Z,94821.23
2018-04-30T07:55:37.468Z,94819.83
2018-04-30T07:58:05.009Z,94816.61
2018-04-30T08:00:32.560Z,94817.76
2018-04-30T08:03:01.763Z,94817.94
2018-04-30T08:05:29.330Z,94820.73
2018-04-30T08:07:56.817Z,94826.56
2018-04-30T08:10:24.405Z,94829.16
2018-04-30T08:12:51.889Z,94825.27
2018-04-30T08:15:19.383Z,94824.77
2018-04-30T08:17:46.858Z,94818.65
2018-04-30T08:20:14.359Z,94816.13
2018-04-30T08:22:41.851Z,94821.99
2018-04-30T08:25:09.497Z,94811.84
2018-04-30T08:27:37.325Z,94806.70
2018-04-30T08:30:04.990Z,94806.43
2018-04-30T08:32:32.605Z,94813.05
2018-04-30T08:35:00.165Z,94811.48
2018-04-30T08:37:28.583Z,94814.80
2018-04-30T08:39:56.245Z,94827.88
2018-04-30T08:42:23.797Z,94831.91
2018-04-30T08:44:51.317Z,94851.04
2018-04-30T08:47:18.849Z,94854.76
2018-04-30T08:49:46.390Z,94868.35
2018-04-30T08:52:13.925Z,94870.82
2018-04-30T08:54:41.482Z,94870.67
2018-04-30T08:57:09.003Z,94876.19
2018-04-30T08:59:36.516Z,94892.03
2018-04-30T09:02:04.306Z,94898.73
2018-04-30T09:04:31.881Z,94896.02
2018-04-30T09:06:59.369Z,94902.59
2018-04-30T09:09:27.743Z,94897.69
2018-04-30T09:11:55.241Z,94909.09
2018-04-30T09:14:22.727Z,94902.39
2018-04-30T09:16:50.207Z,94903.02
2018-04-30T09:19:17.715Z,94914.56
2018-04-30T09:21:45.231Z,94912.75
2018-04-30T09:24:12.716Z,94917.52
2018-04-30T09:26:40.243Z,94918.73
2018-04-30T09:29:07.788Z,94931.33
2018-04-30T09:31:35.261Z,94924.98
2018-04-30T09:34:02.835Z,94930.13
2018-04-30T09:36:30.318Z,94933.77
2018-04-30T09:38:57.791Z,94955.84
2018-04-30T09:41:25.373Z,94946.85
2018-04-30T09:43:52.897Z,94942.03
2018-04-30T09:46:20.446Z,94954.23
2018-04-30T09:48:47.949Z,94951.91
2018-04-30T09:51:15.470Z,94957.24
2018-04-30T09:53:42.996Z,94968.81
2018-04-30T09:56:10.561Z,94978.00
2018-04-30T09:58:38.036Z,94959.00
2018-04-30T10:01:05.511Z,94953.50
2018-04-30T10:03:33.018Z,94969.34
2018-04-30T10:06:01.067Z,94962.89
2018-04-30T10:08:28.710Z,94969.38
2018-04-30T10:10:56.207Z,94967.05
2018-04-30T10:13:23.864Z,94964.33
2018-04-30T10:15:51.496Z,94974.59
2018-04-30T10:18:18.959Z,94969.22
2018-04-30T10:20:46.454Z,94967.11
2018-04-30T10:23:14.399Z,94965.28
2018-04-30T10:25:41.876Z,94965.01
2018-04-30T10:28:11.986Z,94959.77
2018-04-30T10:30:39.499Z,94972.20
2018-04-30T10:33:07.057Z,94971.77
2018-04-30T10:35:34.563Z,94961.64
2018-04-30T10:38:02.058Z,94964.91
2018-04-30T10:40:29.557Z,94968.32
2018-04-30T10:42:57.056Z,94972.55
2018-04-30T10:45:24.618Z,94963.34
2018-04-30T10:47:52.111Z,94975.27
2018-04-30T10:50:19.628Z,94985.09
2018-04-30T10:52:47.116Z,94982.80
2018-04-30T10:55:15.087Z,94983.77
2018-04-30T10:57:42.636Z,94980.34
2018-04-30T11:00:10.683Z,94988.26
2018-04-30T11:02:38.180Z,94994.45
2018-04-30T11:05:05.691Z,94990.72
2018-04-30T11:07:33.261Z,94987.45
2018-04-30T11:10:00.745Z,94999.35
2018-04-30T11:12:28.221Z,95012.90
2018-04-30T11:14:55.740Z,95025.88
2018-04-30T11:17:23.249Z,95025.89
2018-04-30T11:19:50.716Z,95030.94
2018-04-30T11:22:18.188Z,95023.37
2018-04-30T11:24:45.679Z,95019.87
2018-04-30T11:27:13.183Z,95009.39
2018-04-30T11:29:40.713Z,95000.05
2018-04-30T11:32:08.180Z,94990.95
2018-04-30T11:34:35.646Z,95002.63
2018-04-30T11:37:03.153Z,94995.84
2018-04-30T11:39:30.755Z,94990.11
2018-04-30T11:41:58.254Z,95003.22
2018-04-30T11:44:25.812Z,95008.09
2018-04-30T11:46:53.314Z,95007.43
2018-04-30T11:49:20.854Z,95006.61
2018-04-30T11:51:48.335Z,95009.80
2018-04-30T11:54:15.868Z,95010.17
2018-04-30T11:56:43.351Z,95014.89
2018-04-30T11:59:10.854Z,95020.88
2018-04-30T12:01:38.336Z,95024.81
2018-04-30T12:04:06.605Z,95029.91
2018-04-30T12:06:34.109Z,95023.14
2018-04-30T12:09:01.630Z,95033.30
2018-04-30T12:11:29.186Z,95034.39
2018-04-30T12:13:56.757Z,95033.42
2018-04-30T12:16:24.295Z,95037.39
2018-04-30T12:18:51.859Z,95028.80
2018-04-30T12:21:19.410Z,95025.36
2018-04-30T12:23:46.954Z,95023.27
2018-04-30T12:26:14.545Z,95028.19
2018-04-30T12:28:45.632Z,95017.40
2018-04-30T12:31:13.547Z,95018.33
2018-04-30T12:33:41.193Z,95021.27
2018-04-30T12:36:08.797Z,95013.97
2018-04-30T12:38:36.226Z,95018.03
2018-04-30T12:41:03.752Z,95019.04
2018-04-30T12:43:31.228Z,95010.67
2018-04-30T12:45:58.746Z,95008.59
2018-04-30T12:48:26.249Z,95007.95
2018-04-30T12:50:53.813Z,95004.83
2018-04-30T12:53:21.293Z,95000.54
2018-04-30T12:55:48.783Z,95006.63
2018-04-30T12:58:16.311Z,94995.60
2018-04-30T13:00:43.803Z,94990.55
2018-04-30T13:03:11.547Z,94983.63
2018-04-30T13:05:39.178Z,94987.81
2018-04-30T13:08:06.662Z,94987.14
2018-04-30T13:10:34.168Z,94983.50
2018-04-30T13:13:01.684Z,94984.50
2018-04-30T13:15:29.259Z,94989.40
2018-04-30T13:17:56.718Z,94982.27
2018-04-30T13:20:24.204Z,94976.73
2018-04-30T13:22:51.696Z,94979.52
2018-04-30T13:25:19.202Z,94975.11
2018-04-30T13:27:46.775Z,94965.09
2018-04-30T13:30:14.260Z,94969.97
2018-04-30T13:32:41.732Z,94965.55
2018-04-30T13:35:09.397Z,94958.66
2018-04-30T13:37:36.876Z,94958.63
2018-04-30T13:40:04.358Z,94958.16
2018-04-30T13:42:31.932Z,94960.41
2018-04-30T13:44:59.448Z,94963.01
2018-04-30T13:47:26.916Z,94962.28
2018-04-30T13:49:54.393Z,94961.41
2018-04-30T13:52:21.896Z,94956.72
2018-04-30T13:54:49.377Z,94952.19
2018-04-30T13:57:17.125Z,94952.63
2018-04-30T13:59:44.639Z,94945.53
2018-04-30T14:02:12.409Z,94941.57
2018-04-30T14:04:40.664Z,94946.69
2018-04-30T14:07:12.877Z,94947.70
2018-04-30T14:09:40.371Z,94945.17
2018-04-30T14:12:07.849Z,94941.66
2018-04-30T14:14:35.338Z,94943.62
2018-04-30T14:17:02.857Z,94942.48
2018-04-30T14:19:30.568Z,94938.84
2018-04-30T14:21:58.052Z,94931.26
2018-04-30T14:24:25.539Z,94937.91
2018-04-30T14:26:53.012Z,94934.79
2018-04-30T14:29:20.780Z,94929.70
2018-04-30T14:31:48.284Z,94929.95
2018-04-30T14:34:15.787Z,94928.06
2018-04-30T14:36:43.330Z,94925.40
2018-04-30T14:39:11.285Z,94922.88
2018-04-30T14:41:38.830Z,94926.42
2018-04-30T14:44:06.367Z,94922.42
2018-04-30T14:46:33.924Z,94926.77
2018-04-30T14:49:01.472Z,94923.88
2018-04-30T14:51:29.002Z,94922.10
2018-04-30T14:53:56.487Z,94922.39
2018-04-30T14:56:24.046Z,94918.30
2018-04-30T14:58:51.582Z,94923.55
2018-04-30T15:01:19.116Z,94922.50
2018-04-30T15:03:46.664Z,94924.91
2018-04-30T15:06:14.149Z,94913.82
2018-04-30T15:08:41.670Z,94919.19
2018-04-30T15:11:09.568Z,94923.88
2018-04-30T15:13:37.271Z,94928.95
2018-04-30T15:16:04.762Z,94926.45
2018-04-30T15:18:32.239Z,94926.28
2018-04-30T15:20:59.739Z,94924.97
2018-04-30T15:23:27.240Z,94924.02
2018-04-30T15:25:54.891Z,94922.14
2018-04-30T15:28:22.399Z,94919.16
2018-04-30T15:30:49.890Z,94915.17
2018-04-30T15:33:17.832Z,94910.58
2018-04-30T15:35:45.517Z,94915.06
2018-04-30T15:38:13.123Z,94912.48
2018-04-30T15:40:40.724Z,94910.11
2018-04-30T15:43:08.255Z,94912.38
2018-04-30T15:45:35.791Z,94912.05
2018-04-30T15:48:03.308Z,94906.55
2018-04-30T15:50:30.831Z,94904.38
2018-04-30T15:52:58.369Z,94914.14
2018-04-30T15:55:26.209Z,94905.52
2018-04-30T15:57:53.697Z,94907.02
2018-04-30T16:00:21.237Z,94905.20
2018-04-30T16:02:48.778Z,94904.88
2018-04-30T16:05:16.519Z,94900.67
2018-04-30T16:07:45.976Z,94900.28
2018-04-30T16:10:13.545Z,94898.95
2018-04-30T16:12:41.083Z,94905.41
2018-04-30T16:15:08.625Z,94902.56
2018-04-30T16:17:36.208Z,94903.80
2018-04-30T16:20:03.742Z,94907.28
2018-04-30T16:22:31.288Z,94904.28
2018-04-30T16:24:58.856Z,94905.88
2018-04-30T16:27:26.449Z,94907.10
2018-04-30T16:29:53.932Z,94903.88
2018-04-30T16:34:55.161Z,94909.52
2018-04-30T16:37:22.656Z,94910.13
2018-04-30T16:39:50.139Z,94905.03
2018-04-30T16:42:17.638Z,94912.41
2018-04-30T16:44:45.115Z,94916.94
2018-04-30T16:47:12.629Z,94917.25
2018-04-30T16:49:40.119Z,94924.39
2018-04-30T16:52:07.629Z,94922.84
2018-04-30T16:54:35.191Z,94924.46
2018-04-30T16:57:02.715Z,94926.11
2018-04-30T16:59:30.225Z,94929.95
2018-04-30T17:01:57.760Z,94920.72
2018-04-30T17:04:25.264Z,94927.02
2018-04-30T17:06:52.807Z,94927.16
2018-04-30T17:09:20.358Z,94928.63
2018-04-30T17:11:47.873Z,94929.62
2018-04-30T17:14:15.409Z,94929.75
2018-04-30T17:16:42.925Z,94933.49
2018-04-30T17:19:10.416Z,94936.91
2018-04-30T17:21:37.923Z,94940.36
2018-04-30T17:24:05.415Z,94946.09
2018-04-30T17:26:33.017Z,94954.17
2018-04-30T17:29:00.567Z,94956.45
2018-04-30T17:31:28.117Z,94960.86
2018-04-30T17:33:55.768Z,94961.58
2018-04-30T17:36:23.261Z,94962.41
2018-04-30T17:38:50.807Z,94960.69
2018-04-30T17:41:18.444Z,94967.30
2018-04-30T17:43:45.940Z,94968.55
2018-04-30T17:46:13.485Z,94970.16
2018-04-30T17:48:41.035Z,94972.63
2018-04-30T17:51:08.916Z,94981.11
2018-04-30T17:53:36.455Z,94978.75
2018-04-30T17:56:03.971Z,94984.55
2018-04-30T17:58:31.522Z,94985.91
2018-04-30T18:00:59.038Z,94994.73
2018-04-30T18:03:28.424Z,95004.88
2018-04-30T18:05:57.875Z,95007.97
2018-04-30T18:08:25.554Z,95008.79
2018-04-30T18:10:53.155Z,95009.52
2018-04-30T18:13:20.881Z,95017.05
2018-04-30T18:15:48.535Z,95019.64
2018-04-30T18:18:16.142Z,95018.95
2018-04-30T18:20:43.713Z,95026.16
2018-04-30T18:23:11.379Z,95036.59
2018-04-30T18:25:38.907Z,95043.62
2018-04-30T18:28:06.450Z,95046.31
2018-04-30T18:30:33.937Z,95048.83
2018-04-30T18:33:01.457Z,95047.53
2018-04-30T18:35:29.003Z,95049.78
2018-04-30T18:37:56.650Z,95047.76
2018-04-30T18:40:24.239Z,95052.91
2018-04-30T18:42:51.810Z,95056.31
2018-04-30T18:45:19.414Z,95062.37
2018-04-30T18:47:46.921Z,95065.65
2018-04-30T18:50:14.472Z,95073.85
2018-04-30T18:52:42.061Z,95079.94
2018-04-30T18:55:09.650Z,95081.44
2018-04-30T18:57:37.207Z,95082.61
2018-04-30T19:00:04.791Z,95086.48
2018-04-30T19:02:32.351Z,95094.14
2018-04-30T19:04:59.905Z,95096.27
2018-04-30T19:07:27.472Z,95091.42
2018-04-30T19:09:55.087Z,95092.16
2018-04-30T19:12:23.095Z,95089.20
2018-04-30T19:14:50.642Z,95091.38
2018-04-30T19:17:18.177Z,95096.78
2018-04-30T19:19:45.720Z,95097.20
2018-04-30T19:22:13.255Z,95101.78
2018-04-30T19:24:40.801Z,95100.67
2018-04-30T19:27:08.515Z,95096.06
2018-04-30T19:29:36.085Z,95100.82
2018-04-30T19:32:03.616Z,95094.97
2018-04-30T19:34:31.110Z,95107.11
2018-04-30T19:36:58.621Z,95107.84
2018-04-30T19:39:26.102Z,95113.84
2018-04-30T19:41:53.628Z,95114.34
2018-04-30T19:44:21.145Z,95118.13
2018-04-30T19:46:48.691Z,95123.66
2018-04-30T19:49:16.213Z,95127.68
2018-04-30T19:51:43.784Z,95130.85
2018-04-30T19:54:11.256Z,95133.12
2018-04-30T19:56:38.819Z,95137.61
2018-04-30T19:59:06.481Z,95141.79
2018-04-30T20:01:34.095Z,95144.67
2018-04-30T20:04:06.941Z,95143.72
2018-04-30T20:06:34.631Z,95148.44
2018-04-30T20:09:02.190Z,95146.87
2018-04-30T20:11:29.751Z,95152.78
2018-04-30T20:13:57.303Z,95155.91
2018-04-30T20:16:24.829Z,95146.63
2018-04-30T20:18:52.409Z,95157.33
2018-04-30T20:21:19.937Z,95165.16
2018-04-30T20:23:47.486Z,95162.75
2018-04-30T20:26:14.991Z,95167.02
2018-04-30T20:28:42.550Z,95166.85
2018-04-30T20:31:10.285Z,95169.95
2018-04-30T20:33:37.832Z,95164.86
2018-04-30T20:36:05.361Z,95165.23
2018-04-30T20:38:32.935Z,95171.71
2018-04-30T20:41:00.491Z,95165.94
2018-04-30T20:43:28.020Z,95166.86
2018-04-30T20:45:55.541Z,95168.09
2018-04-30T20:48:23.073Z,95167.69
2018-04-30T20:50:50.640Z,95166.93
2018-04-30T20:53:18.137Z,95168.52
2018-04-30T20:55:45.657Z,95164.61
2018-04-30T20:58:13.185Z,95161.28
2018-04-30T21:00:40.698Z,95169.94
2018-04-30T21:03:08.567Z,95172.08
2018-04-30T21:05:36.159Z,95171.48
2018-04-30T21:08:03.734Z,95179.03
2018-04-30T21:10:31.377Z,95179.80
2018-04-30T21:12:58.963Z,95181.39
2018-04-30T21:15:26.570Z,95176.58
2018-04-30T21:17:54.240Z,95176.41
2018-04-30T21:20:21.786Z,95175.19
2018-04-30T21:22:49.317Z,95186.69
2018-04-30T21:25:16.836Z,95181.55
2018-04-30T21:30:42.278Z,95189.17
2018-04-30T21:33:09.893Z,95180.36
2018-04-30T21:35:37.449Z,95191.58
2018-04-30T21:38:05.030Z,95194.34
2018-04-30T21:40:32.569Z,95203.03
2018-04-30T21:43:00.181Z,95205.58
2018-04-30T21:45:27.740Z,95205.06
2018-04-30T21:47:55.341Z,95208.95
2018-04-30T21:50:22.897Z,95212.51
2018-04-30T21:52:50.427Z,95207.27
2018-04-30T21:55:17.945Z,95216.21
2018-04-30T21:57:45.524Z,95216.77
2018-04-30T22:00:13.094Z,95219.91
2018-04-30T22:02:44.413Z,95221.92
2018-04-30T22:05:14.145Z,95226.67
2018-04-30T22:07:41.672Z,95228.40
2018-04-30T22:10:09.180Z,95226.17
2018-04-30T22:12:36.764Z,95230.50
2018-04-30T22:15:04.292Z,95228.78
2018-04-30T22:17:31.791Z,95230.50
2018-04-30T22:19:59.322Z,95237.45
2018-04-30T22:22:26.875Z,95239.52
2018-04-30T22:24:54.426Z,95236.45
2018-04-30T22:27:22.046Z,95237.16
2018-04-30T22:29:49.604Z,95234.45
2018-04-30T22:32:17.118Z,95247.94
2018-04-30T22:34:44.644Z,95247.56
2018-04-30T22:37:12.310Z,95246.09
2018-04-30T22:39:39.791Z,95250.87
2018-04-30T22:42:07.330Z,95238.84
2018-04-30T22:44:34.808Z,95236.19
2018-04-30T22:47:02.302Z,95233.02
2018-04-30T22:49:29.836Z,95231.78
2018-04-30T22:51:57.335Z,95238.30
2018-04-30T22:54:24.868Z,95234.45
2018-04-30T22:56:52.383Z,95234.32
2018-04-30T22:59:19.860Z,95237.45
2018-04-30T23:01:47.395Z,95236.27
2018-04-30T23:04:14.899Z,95236.78
2018-04-30T23:06:42.394Z,95241.78
2018-04-30T23:09:09.903Z,95248.89
2018-04-30T23:11:37.562Z,95250.46
2018-04-30T23:14:05.218Z,95252.34
2018-04-30T23:16:32.792Z,95248.27
2018-04-30T23:19:00.287Z,95253.69
2018-04-30T23:21:27.798Z,95254.91
2018-04-30T23:23:55.303Z,95257.49
2018-04-30T23:26:22.788Z,95251.69
2018-04-30T23:28:50.266Z,95255.38
2018-04-30T23:31:17.739Z,95249.44
2018-04-30T23:33:45.256Z,95248.76
2018-04-30T23:36:12.733Z,95248.05
2018-04-30T23:38:40.200Z,95255.78
2018-04-30T23:41:07.786Z,95254.33
2018-04-30T23:43:35.261Z,95259.53
2018-04-30T23:46:02.749Z,95252.84
2018-04-30T23:48:30.252Z,95258.96
2018-04-30T23:50:57.757Z,95257.27
2018-04-30T23:53:25.289Z,95267.82
2018-04-30T23:55:52.759Z,95273.52
2018-04-30T23:58:20.223Z,95275.47
